Time;durP1;ratioP1;P1;durP2;ratioP2;P2;SDS_P1;SDS_P2;PMS_P1;PMS_P2;Temp;Humidity;BMP_temperature;BMP_pressure;BME280_temperature;BME280_humidity;BME280_pressure;Samples;Min_cycle;Max_cycle;Signal;HPM_P1;HPM_P2
2022/03/14 00:00:56;;;;;;;10.82;5.22;;;;;;;5.79;45.29;101893.56;10400058;28;20092;-70
2022/03/14 00:05:52;;;;;;;11.15;5.20;;;;;;;5.66;44.19;101892.06;10408387;28;20050;-69
2022/03/14 00:10:51;;;;;;;11.15;5.95;;;;;;;5.56;48.73;101900.94;10388251;27;20069;-73
2022/03/14 00:15:47;;;;;;;12.25;5.20;;;;;;;5.54;45.41;101902.25;10392113;28;20070;-66
2022/03/14 00:20:46;;;;;;;8.13;4.40;;;;;;;5.47;48.51;101902.44;10407553;28;20137;-65
2022/03/14 00:25:43;;;;;;;9.18;5.35;;;;;;;5.39;49.09;101916.47;10391673;27;20094;-68
2022/03/14 00:30:39;;;;;;;8.50;4.82;;;;;;;5.32;49.54;101910.44;10381394;27;20093;-68
2022/03/14 00:35:36;;;;;;;13.85;5.63;;;;;;;5.18;49.44;101905.38;10393244;27;20076;-69
2022/03/14 00:40:32;;;;;;;10.35;4.63;;;;;;;5.16;48.47;101912.13;10382539;27;20467;-68
2022/03/14 00:45:31;;;;;;;9.57;5.18;;;;;;;5.12;49.65;101909.09;10379395;27;20092;-69
2022/03/14 00:50:27;;;;;;;10.32;4.93;;;;;;;5.07;48.89;101909.84;10374541;27;20048;-68
2022/03/14 00:55:24;;;;;;;11.82;5.32;;;;;;;5.08;49.68;101907.94;10395967;27;20638;-67
2022/03/14 01:00:21;;;;;;;10.00;5.45;;;;;;;5.04;52.28;101909.53;10403568;27;20459;-67
2022/03/14 01:05:18;;;;;;;10.75;5.00;;;;;;;4.85;49.15;101911.75;10402799;27;20119;-67
2022/03/14 01:10:14;;;;;;;10.30;5.32;;;;;;;5.01;49.95;101910.88;10415123;27;20054;-67
2022/03/14 01:15:11;;;;;;;11.80;5.35;;;;;;;4.98;48.00;101913.25;10406963;27;20055;-67
2022/03/14 01:20:10;;;;;;;11.00;5.40;;;;;;;4.80;49.34;101920.63;10403869;27;20100;-67
2022/03/14 01:25:07;;;;;;;11.77;5.85;;;;;;;4.99;46.83;101923.00;10386415;27;20699;-67
2022/03/14 01:30:04;;;;;;;10.40;5.30;;;;;;;5.09;46.59;101928.59;10392713;27;20060;-67
2022/03/14 01:35:01;;;;;;;10.23;4.90;;;;;;;5.03;48.63;101924.16;10403042;27;20055;-67
2022/03/14 01:39:58;;;;;;;11.15;5.40;;;;;;;5.00;47.00;101920.06;10400486;27;20445;-64
2022/03/14 01:44:54;;;;;;;11.45;5.68;;;;;;;4.92;45.96;101922.38;10395608;27;20078;-65
2022/03/14 01:49:51;;;;;;;9.00;4.75;;;;;;;4.93;46.31;101924.03;10394605;27;20134;-64
2022/03/14 01:54:48;;;;;;;11.65;5.70;;;;;;;4.91;46.80;101931.59;10419285;27;20115;-65
2022/03/14 01:59:44;;;;;;;11.38;4.72;;;;;;;4.91;46.38;101926.97;10408077;27;20398;-64
2022/03/14 02:09:53;;;;;;;9.95;5.20;;;;;;;4.77;47.58;101926.50;10392055;22;20049;-70
2022/03/14 02:14:49;;;;;;;10.23;5.03;;;;;;;4.70;46.95;101936.72;10171249;28;20042;-69
2022/03/14 02:19:46;;;;;;;10.35;5.55;;;;;;;4.69;45.82;101929.66;10160100;28;20104;-70
2022/03/14 02:24:45;;;;;;;10.80;5.78;;;;;;;4.69;46.59;101935.09;10159422;28;20101;-69
2022/03/14 02:29:42;;;;;;;10.60;5.78;;;;;;;4.64;46.88;101927.69;10215210;28;20045;-69
2022/03/14 02:34:41;;;;;;;10.60;5.55;;;;;;;4.71;46.68;101930.25;10167014;28;20169;-69
2022/03/14 02:39:38;;;;;;;12.73;5.72;;;;;;;4.63;49.33;101936.06;10165949;28;20116;-70
2022/03/14 02:44:35;;;;;;;14.05;6.78;;;;;;;4.55;50.03;101940.03;10153421;28;20508;-71
2022/03/14 02:49:32;;;;;;;12.80;5.40;;;;;;;4.56;48.63;101948.97;10165818;28;20452;-70
2022/03/14 02:54:28;;;;;;;11.18;5.45;;;;;;;4.37;46.14;101946.50;10175627;28;20125;-71
2022/03/14 02:59:25;;;;;;;11.23;5.63;;;;;;;4.43;49.11;101953.66;10171182;28;20046;-71
2022/03/14 03:04:22;;;;;;;13.63;5.82;;;;;;;4.36;49.73;101944.88;10167352;28;20077;-72
2022/03/14 03:09:18;;;;;;;13.00;5.78;;;;;;;4.48;50.26;101957.47;10155741;28;21748;-72
2022/03/14 03:14:14;;;;;;;12.50;5.55;;;;;;;4.40;50.90;101954.13;10163381;28;20081;-71
2022/03/14 03:19:11;;;;;;;13.55;5.95;;;;;;;4.39;51.34;101952.50;10152465;28;20046;-70
2022/03/14 03:24:08;;;;;;;11.68;5.15;;;;;;;4.42;51.25;101952.00;10177552;28;20080;-70
2022/03/14 03:29:06;;;;;;;12.90;5.93;;;;;;;4.45;48.66;101950.69;10155621;28;20050;-70
2022/03/14 03:34:03;;;;;;;13.00;5.88;;;;;;;4.27;49.52;101969.88;10154528;28;20070;-73
2022/03/14 03:38:59;;;;;;;12.32;5.82;;;;;;;4.25;52.97;101972.84;10165028;28;20038;-70
2022/03/14 03:43:55;;;;;;;9.82;5.15;;;;;;;4.09;52.63;101976.34;10166307;28;20090;-69
2022/03/14 03:48:52;;;;;;;10.70;5.57;;;;;;;4.00;53.39;101981.31;10153187;28;20184;-71
2022/03/14 03:53:49;;;;;;;13.15;5.70;;;;;;;4.09;52.80;101979.06;10154142;28;20584;-71
2022/03/14 03:58:46;;;;;;;10.48;5.93;;;;;;;3.98;55.09;101989.66;10161306;28;20622;-71
2022/03/14 04:03:43;;;;;;;13.15;5.90;;;;;;;3.95;55.78;101995.56;10168977;28;20042;-69
2022/03/14 04:08:39;;;;;;;11.45;5.65;;;;;;;3.81;57.75;102005.06;10166086;28;20042;-69
2022/03/14 04:13:36;;;;;;;11.93;6.18;;;;;;;3.81;55.70;101999.63;10189922;28;20050;-70
2022/03/14 04:18:33;;;;;;;15.45;6.40;;;;;;;3.79;56.10;101996.34;10158672;28;20447;-70
2022/03/14 04:23:31;;;;;;;12.30;5.90;;;;;;;3.72;56.69;102001.09;10154642;28;20054;-69
2022/03/14 04:28:28;;;;;;;10.77;5.80;;;;;;;3.61;60.22;101993.81;10167983;28;20076;-70
2022/03/14 04:33:25;;;;;;;11.60;5.93;;;;;;;3.59;57.01;102004.88;10168516;28;20416;-69
2022/03/14 04:38:22;;;;;;;12.90;6.72;;;;;;;3.58;56.47;102008.66;10170756;28;20129;-70
2022/03/14 04:43:21;;;;;;;17.52;6.63;;;;;;;3.54;58.02;102016.41;10163422;28;20420;-68
2022/03/14 04:48:17;;;;;;;10.27;5.65;;;;;;;3.40;62.78;102015.03;10158390;28;20575;-68
2022/03/14 04:53:14;;;;;;;15.15;6.55;;;;;;;3.34;57.81;102019.50;10177260;28;20038;-68
2022/03/14 04:58:14;;;;;;;13.73;6.30;;;;;;;3.35;63.53;102023.03;10166897;28;20133;-67
2022/03/14 05:03:11;;;;;;;11.23;6.18;;;;;;;3.32;64.47;102028.94;10163686;28;20050;-69
2022/03/14 05:08:07;;;;;;;12.48;6.30;;;;;;;3.22;63.17;102028.69;10171056;28;20045;-68
2022/03/14 05:13:04;;;;;;;12.35;6.15;;;;;;;3.20;63.69;102025.38;10168404;28;20550;-67
2022/03/14 05:18:01;;;;;;;14.95;7.50;;;;;;;3.14;66.71;102030.69;10148745;28;20034;-67
2022/03/14 05:22:57;;;;;;;13.68;6.80;;;;;;;3.08;68.14;102037.03;10153365;28;20039;-69
2022/03/14 05:27:54;;;;;;;13.85;6.47;;;;;;;2.96;70.14;102036.22;10159143;28;20504;-68
2022/03/14 05:32:52;;;;;;;15.27;6.82;;;;;;;2.96;69.50;102041.63;10165140;28;20052;-68
2022/03/14 05:37:51;;;;;;;15.02;7.03;;;;;;;2.99;67.51;102041.13;10172278;28;20039;-69
2022/03/14 05:42:49;;;;;;;16.48;7.15;;;;;;;2.95;67.78;102045.38;10160698;28;20050;-69
2022/03/14 05:47:46;;;;;;;14.05;6.82;;;;;;;2.99;67.57;102056.53;10155179;28;20096;-70
2022/03/14 05:52:43;;;;;;;15.38;7.20;;;;;;;2.97;66.83;102048.69;10148203;28;20046;-72
2022/03/14 05:57:40;;;;;;;14.80;7.32;;;;;;;2.99;63.94;102046.53;10149489;28;20166;-72
2022/03/14 06:02:38;;;;;;;16.17;8.35;;;;;;;2.98;69.05;102055.72;10148469;28;20526;-72
2022/03/14 06:07:34;;;;;;;15.90;7.75;;;;;;;2.73;73.52;102055.91;10156183;28;20588;-71
2022/03/14 06:12:31;;;;;;;16.95;8.43;;;;;;;2.71;68.84;102056.13;10145501;28;20075;-70
2022/03/14 06:17:27;;;;;;;16.25;8.57;;;;;;;2.67;74.75;102060.38;10147468;28;20042;-70
2022/03/14 06:22:24;;;;;;;17.85;8.43;;;;;;;2.70;75.70;102059.91;10152353;28;20104;-70
2022/03/14 06:27:22;;;;;;;16.50;7.82;;;;;;;2.76;70.53;102068.13;10152888;28;20117;-69
2022/03/14 06:32:21;;;;;;;17.52;8.55;;;;;;;2.79;74.13;102073.09;10149643;28;20212;-69
2022/03/14 06:37:18;;;;;;;18.05;7.93;;;;;;;3.10;64.64;102064.63;10147790;28;20483;-68
2022/03/14 06:42:15;;;;;;;15.32;7.22;;;;;;;3.09;64.79;102071.13;10145468;28;20054;-69
2022/03/14 06:47:12;;;;;;;16.65;7.85;;;;;;;3.17;60.08;102084.25;10145361;28;20042;-69
2022/03/14 06:52:09;;;;;;;15.68;7.88;;;;;;;3.30;66.23;102085.09;10149228;28;20055;-69
2022/03/14 06:57:06;;;;;;;19.20;8.32;;;;;;;3.40;60.03;102089.91;10146987;28;20089;-69
2022/03/14 07:02:04;;;;;;;21.08;8.25;;;;;;;3.48;64.95;102103.06;10147870;28;20089;-69
2022/03/14 07:07:03;;;;;;;14.30;7.85;;;;;;;3.49;61.37;102094.72;10155575;28;20562;-69
2022/03/14 07:11:59;;;;;;;17.48;8.90;;;;;;;3.59;59.16;102105.75;10152382;28;20490;-69
2022/03/14 07:16:56;;;;;;;13.98;7.18;;;;;;;3.77;55.56;102117.50;10151451;28;20082;-69
2022/03/14 07:21:53;;;;;;;19.98;8.60;;;;;;;3.87;54.43;102106.88;10164655;28;20054;-68
2022/03/14 07:26:49;;;;;;;18.60;8.60;;;;;;;3.93;51.81;102105.94;10160293;28;20120;-69
2022/03/14 07:31:46;;;;;;;16.33;7.82;;;;;;;4.03;53.25;102108.03;10152401;28;20105;-69
2022/03/14 07:36:43;;;;;;;15.45;7.80;;;;;;;4.17;58.08;102114.00;10150440;28;20050;-69
2022/03/14 07:41:40;;;;;;;18.88;7.85;;;;;;;4.32;50.32;102125.13;10151372;28;20042;-69
2022/03/14 07:46:37;;;;;;;16.50;7.82;;;;;;;4.32;48.45;102118.91;10161352;28;20554;-69
2022/03/14 07:51:33;;;;;;;15.32;7.60;;;;;;;4.50;47.09;102120.56;10148119;28;21471;-69
2022/03/14 07:56:30;;;;;;;14.15;7.60;;;;;;;4.64;46.19;102127.34;10146608;28;20104;-69
2022/03/14 08:01:26;;;;;;;16.15;7.43;;;;;;;4.73;45.37;102120.44;10146933;28;20105;-69
2022/03/14 08:06:23;;;;;;;18.10;8.00;;;;;;;4.87;46.03;102120.16;10126761;28;20043;-69
2022/03/14 08:11:20;;;;;;;20.92;9.18;;;;;;;5.01;45.94;102132.31;10150658;28;20158;-69
2022/03/14 08:16:16;;;;;;;15.65;8.65;;;;;;;5.15;44.74;102138.22;10152021;28;20149;-69
2022/03/14 08:21:13;;;;;;;15.52;7.65;;;;;;;5.31;43.76;102147.44;10149146;28;20511;-69
2022/03/14 08:26:10;;;;;;;14.05;7.95;;;;;;;5.44;43.49;102153.34;10157020;28;20500;-69
2022/03/14 08:31:07;;;;;;;15.82;8.43;;;;;;;5.65;43.76;102164.50;10157357;28;20179;-69
2022/03/14 08:36:04;;;;;;;17.15;8.75;;;;;;;5.89;43.37;102155.09;10156247;28;20494;-69
2022/03/14 08:41:01;;;;;;;15.73;8.25;;;;;;;5.92;42.49;102159.19;10156684;28;20084;-70
2022/03/14 08:45:57;;;;;;;14.52;8.15;;;;;;;5.87;44.10;102159.09;10157248;28;20602;-69
2022/03/14 08:50:54;;;;;;;15.48;7.50;;;;;;;6.32;41.87;102152.66;10157395;28;20484;-71
2022/03/14 08:55:52;;;;;;;17.92;9.00;;;;;;;6.53;41.51;102165.38;10154095;28;20100;-71
2022/03/14 09:00:48;;;;;;;16.15;8.80;;;;;;;6.87;41.89;102165.19;10152250;28;20054;-71
2022/03/14 09:05:46;;;;;;;14.43;8.10;;;;;;;7.06;42.09;102173.78;10151071;28;20054;-69
2022/03/14 09:10:42;;;;;;;16.67;8.32;;;;;;;7.13;40.49;102174.41;10152311;28;20134;-68
2022/03/14 09:15:39;;;;;;;19.60;8.48;;;;;;;7.14;40.52;102183.38;10147916;28;21775;-69
2022/03/14 09:20:38;;;;;;;14.95;8.05;;;;;;;7.09;40.61;102177.91;10147520;28;20049;-69
2022/03/14 09:25:35;;;;;;;16.92;8.27;;;;;;;7.33;41.59;102184.66;10148140;28;20070;-69
2022/03/14 09:30:31;;;;;;;17.02;9.00;;;;;;;7.54;42.43;102185.63;10156679;28;20038;-69
2022/03/14 09:35:28;;;;;;;18.05;9.50;;;;;;;7.66;41.80;102182.69;10155363;28;20042;-66
2022/03/14 09:40:24;;;;;;;15.55;9.02;;;;;;;7.83;42.45;102193.41;10153284;28;20465;-69
2022/03/14 09:45:22;;;;;;;20.35;9.13;;;;;;;7.86;44.40;102192.88;10150087;28;20129;-69
2022/03/14 09:50:32;;;;;;;17.00;9.07;;;;;;;8.09;45.29;102197.09;10156148;28;20043;-69
2022/03/14 09:55:30;;;;;;;15.73;7.70;;;;;;;8.17;43.67;102196.59;10154592;28;20058;-69
2022/03/14 10:00:26;;;;;;;15.48;7.82;;;;;;;8.51;45.25;102204.38;10154704;28;20129;-69
2022/03/14 10:05:24;;;;;;;15.95;8.38;;;;;;;8.74;45.17;102207.72;10151252;28;20467;-66
2022/03/14 10:10:21;;;;;;;15.57;8.40;;;;;;;8.80;44.64;102209.38;10148949;28;20714;-66
2022/03/14 10:15:17;;;;;;;18.92;8.50;;;;;;;8.82;45.28;102209.94;10148265;28;20129;-67
2022/03/14 10:20:15;;;;;;;15.32;7.35;;;;;;;9.20;47.86;102199.63;10148803;28;20074;-68
2022/03/14 10:25:14;;;;;;;18.67;8.82;;;;;;;9.39;48.44;102200.69;10149422;28;20058;-68
2022/03/14 10:30:22;;;;;;;16.73;8.35;;;;;;;9.15;48.04;102202.34;10147179;28;20074;-68
2022/03/14 10:35:21;;;;;;;16.45;9.02;;;;;;;9.28;48.88;102207.25;10147592;28;20096;-68
2022/03/14 10:40:17;;;;;;;16.70;8.35;;;;;;;9.23;49.08;102215.44;10145397;28;21378;-69
2022/03/14 10:45:19;;;;;;;15.75;8.20;;;;;;;9.26;49.86;102220.38;10145936;28;20054;-69
2022/03/14 10:50:38;;;;;;;16.83;8.80;;;;;;;9.31;50.56;102220.38;10146609;28;20038;-69
2022/03/14 10:55:43;;;;;;;15.93;8.80;;;;;;;9.23;52.99;102221.72;10141887;28;20065;-70
2022/03/14 11:00:49;;;;;;;15.23;7.88;;;;;;;9.19;56.18;102230.72;10137732;28;20605;-69
2022/03/14 11:05:46;;;;;;;14.82;8.10;;;;;;;9.13;58.78;102231.81;10145933;28;20077;-69
2022/03/14 11:10:43;;;;;;;16.60;8.40;;;;;;;9.14;61.81;102233.44;10149915;28;20054;-69
2022/03/14 11:15:40;;;;;;;13.98;7.75;;;;;;;9.13;62.38;102234.53;10151625;28;20042;-69
2022/03/14 11:20:37;;;;;;;13.70;8.13;;;;;;;9.06;66.27;102237.53;10151890;28;20046;-69
2022/03/14 11:25:37;;;;;;;17.55;8.50;;;;;;;9.19;69.45;102231.56;10151790;28;20569;-69
2022/03/14 11:30:37;;;;;;;13.68;7.93;;;;;;;9.17;71.79;102243.84;10151661;28;20129;-69
2022/03/14 11:35:34;;;;;;;14.20;7.35;;;;;;;9.33;74.81;102241.91;10152336;28;20974;-69
2022/03/14 11:40:32;;;;;;;17.45;8.93;;;;;;;9.28;76.28;102245.47;10146336;28;20046;-69
2022/03/14 11:45:31;;;;;;;13.88;8.30;;;;;;;9.26;82.48;102248.47;10144214;28;20054;-69
2022/03/14 11:50:27;;;;;;;12.65;7.57;;;;;;;9.40;87.52;102243.31;10140340;28;20070;-69
2022/03/14 11:55:29;;;;;;;15.63;8.73;;;;;;;9.65;90.83;102238.91;10140411;28;20508;-70
2022/03/14 12:00:32;;;;;;;13.77;7.25;;;;;;;9.70;90.64;102230.75;10140555;28;20093;-69
2022/03/14 12:05:32;;;;;;;17.67;7.80;;;;;;;9.76;92.71;102229.63;10136219;28;20046;-70
2022/03/14 12:10:35;;;;;;;14.13;8.75;;;;;;;9.88;92.89;102221.94;10137478;28;20050;-69
2022/03/14 12:15:44;;;;;;;17.67;8.35;;;;;;;10.09;92.88;102227.38;10144033;28;20042;-69
2022/03/14 12:20:40;;;;;;;15.68;8.30;;;;;;;10.29;91.73;102243.75;10142537;28;20116;-69
2022/03/14 12:25:42;;;;;;;12.95;7.97;;;;;;;10.17;94.85;102251.41;10147907;28;20046;-69
2022/03/14 12:30:38;;;;;;;12.50;7.82;;;;;;;10.16;99.32;102255.22;10148419;28;20061;-69
2022/03/14 12:35:37;;;;;;;13.82;8.07;;;;;;;10.06;100.00;102260.72;10147839;28;20047;-69
2022/03/14 12:40:34;;;;;;;13.00;8.10;;;;;;;9.88;100.00;102270.31;10145947;28;20042;-69
2022/03/14 12:45:35;;;;;;;13.20;8.50;;;;;;;9.81;100.00;102270.59;10145433;28;20444;-69
2022/03/14 12:50:50;;;;;;;13.43;8.15;;;;;;;9.84;100.00;102275.50;10147367;28;20493;-69
2022/03/14 12:55:51;;;;;;;16.15;8.93;;;;;;;9.85;100.00;102266.22;10151433;28;20053;-69
2022/03/14 13:00:48;;;;;;;18.10;9.90;;;;;;;9.85;100.00;102271.69;10149200;28;20512;-69
2022/03/14 13:05:53;;;;;;;15.18;9.35;;;;;;;9.78;100.00;102282.06;10150879;28;20451;-69
2022/03/14 13:10:51;;;;;;;18.85;10.07;;;;;;;9.68;100.00;102284.81;10152904;28;20116;-69
2022/03/14 13:16:05;;;;;;;18.85;10.32;;;;;;;9.70;100.00;102279.91;10151562;28;20093;-69
2022/03/14 13:21:21;;;;;;;15.15;9.32;;;;;;;9.72;100.00;102272.22;10152375;28;20074;-69
2022/03/14 13:26:21;;;;;;;20.38;10.60;;;;;;;9.69;100.00;102264.59;10149324;28;20077;-69
2022/03/14 13:31:30;;;;;;;16.48;10.30;;;;;;;9.81;100.00;102281.50;10152297;28;20479;-69
2022/03/14 13:36:26;;;;;;;16.08;10.35;;;;;;;9.80;100.00;102271.69;10150746;28;20081;-69
2022/03/14 13:41:26;;;;;;;19.10;11.88;;;;;;;9.98;100.00;102291.31;10152144;28;20496;-69
2022/03/14 13:46:25;;;;;;;14.70;10.20;;;;;;;9.90;100.00;102285.31;10156349;28;20105;-69
2022/03/14 13:51:27;;;;;;;21.30;11.38;;;;;;;9.93;100.00;102292.16;10150321;28;20574;-70
2022/03/14 13:56:30;;;;;;;25.05;12.38;;;;;;;9.95;100.00;102297.34;10150744;28;20078;-69
2022/03/14 14:01:40;;;;;;;19.02;12.30;;;;;;;9.75;100.00;102299.00;10151404;28;20125;-69
2022/03/14 14:06:50;;;;;;;17.05;12.82;;;;;;;9.86;100.00;102303.38;10137169;28;20054;-69
2022/03/14 14:11:58;;;;;;;16.92;12.35;;;;;;;9.87;100.00;102307.75;10141854;28;20058;-70
2022/03/14 14:17:15;;;;;;;15.85;12.63;;;;;;;9.97;100.00;102295.16;10143516;28;20050;-69
2022/03/14 14:22:12;;;;;;;26.27;13.77;;;;;;;10.03;100.00;102296.81;10145321;28;20121;-69
2022/03/14 14:27:16;;;;;;;19.60;12.68;;;;;;;10.05;100.00;102297.34;10144332;28;20100;-70
2022/03/14 14:32:14;;;;;;;18.75;12.07;;;;;;;10.07;100.00;102300.59;10144171;28;20084;-69
2022/03/14 14:37:11;;;;;;;17.60;12.63;;;;;;;10.10;100.00;102311.00;10142199;28;20097;-68
2022/03/14 14:42:10;;;;;;;17.20;11.60;;;;;;;10.16;100.00;102318.09;10140719;28;20113;-69
2022/03/14 14:47:08;;;;;;;18.73;12.77;;;;;;;10.13;100.00;102321.38;10137697;28;20105;-69
2022/03/14 14:52:04;;;;;;;24.33;12.52;;;;;;;10.01;100.00;102331.78;10142447;28;20853;-69
2022/03/14 14:57:02;;;;;;;22.25;12.15;;;;;;;9.97;100.00;102327.97;10140234;28;20078;-69
2022/03/14 15:01:58;;;;;;;17.90;11.05;;;;;;;9.85;100.00;102331.78;10139519;28;20038;-70
2022/03/14 15:06:55;;;;;;;38.65;13.38;;;;;;;9.72;100.00;102332.31;10142830;28;20532;-68
2022/03/14 15:11:52;;;;;;;18.92;9.85;;;;;;;9.72;100.00;102326.84;10141308;28;20070;-70
2022/03/14 15:16:49;;;;;;;12.60;9.00;;;;;;;9.61;100.00;102330.69;10142031;28;20468;-71
2022/03/14 15:21:45;;;;;;;10.30;7.32;;;;;;;9.32;100.00;102336.63;10139887;28;20050;-69
2022/03/14 15:26:42;;;;;;;12.52;7.40;;;;;;;9.10;100.00;102341.47;10144700;28;20196;-70
2022/03/14 15:31:38;;;;;;;12.27;8.75;;;;;;;9.08;100.00;102349.16;10145790;28;20035;-70
2022/03/14 15:36:37;;;;;;;12.82;9.30;;;;;;;9.06;100.00;102350.22;10146326;28;20042;-69
2022/03/14 15:41:34;;;;;;;11.95;8.93;;;;;;;9.02;100.00;102362.75;10148137;28;20050;-70
2022/03/14 15:46:30;;;;;;;11.90;9.30;;;;;;;8.91;100.00;102366.53;10145641;28;20084;-70
2022/03/14 15:51:27;;;;;;;12.30;8.68;;;;;;;8.85;100.00;102378.50;10142440;28;20141;-70
2022/03/14 15:56:25;;;;;;;12.93;9.07;;;;;;;8.75;100.00;102384.75;10142195;28;20189;-70
2022/03/14 16:01:25;;;;;;;13.02;9.32;;;;;;;8.73;100.00;102386.09;10138960;28;20427;-70
2022/03/14 16:06:22;;;;;;;18.30;12.30;;;;;;;8.66;100.00;102385.47;10143829;28;20058;-70
2022/03/14 16:11:19;;;;;;;19.90;12.48;;;;;;;8.63;100.00;102382.22;10146302;28;20081;-70
2022/03/14 16:16:16;;;;;;;17.35;13.23;;;;;;;8.52;100.00;102385.97;10148055;28;20138;-71
2022/03/14 16:21:12;;;;;;;15.35;11.15;;;;;;;8.49;100.00;102391.91;10148202;28;20054;-70
2022/03/14 16:26:09;;;;;;;15.77;11.60;;;;;;;8.37;100.00;102404.91;10150515;28;20050;-70
2022/03/14 16:31:06;;;;;;;16.63;12.35;;;;;;;8.32;100.00;102413.03;10156179;28;20452;-70
2022/03/14 16:36:03;;;;;;;16.90;12.20;;;;;;;8.18;100.00;102424.38;10157726;28;20104;-70
2022/03/14 16:41:01;;;;;;;21.52;14.48;;;;;;;8.05;100.00;102429.44;10159599;28;20082;-70
2022/03/14 16:45:57;;;;;;;20.02;15.32;;;;;;;8.13;100.00;102432.50;10157333;28;20058;-71
2022/03/14 16:50:54;;;;;;;23.15;16.60;;;;;;;8.19;100.00;102441.53;10172615;28;20065;-70
2022/03/14 16:55:51;;;;;;;20.63;15.70;;;;;;;8.15;100.00;102446.72;10214639;28;20495;-70
2022/03/14 17:00:47;;;;;;;19.83;14.82;;;;;;;8.09;100.00;102446.91;10197494;28;20045;-70
2022/03/14 17:05:44;;;;;;;20.95;14.85;;;;;;;8.02;100.00;102441.66;10197546;28;20042;-71
2022/03/14 17:10:47;;;;;;;24.05;16.65;;;;;;;7.95;100.00;102455.50;10190856;28;20132;-70
2022/03/14 17:15:44;;;;;;;19.10;14.68;;;;;;;7.98;100.00;102462.31;10195746;28;20074;-71
2022/03/14 17:20:42;;;;;;;20.88;14.68;;;;;;;8.02;100.00;102463.47;10195646;28;20065;-71
2022/03/14 17:25:39;;;;;;;20.02;14.35;;;;;;;8.00;100.00;102471.06;10193329;28;20074;-71
2022/03/14 17:30:36;;;;;;;19.33;13.63;;;;;;;8.07;100.00;102470.88;10188591;28;20104;-71
2022/03/14 17:35:34;;;;;;;20.65;15.63;;;;;;;7.99;100.00;102481.16;10188357;28;20037;-71
2022/03/14 17:40:31;;;;;;;19.60;14.60;;;;;;;7.96;100.00;102480.81;10182302;28;20590;-71
2022/03/14 17:45:28;;;;;;;21.10;16.02;;;;;;;8.01;100.00;102484.44;10184589;28;20684;-71
2022/03/14 17:50:25;;;;;;;20.15;14.43;;;;;;;8.09;100.00;102485.06;10187684;28;20058;-71
2022/03/14 17:55:22;;;;;;;21.08;14.45;;;;;;;8.05;100.00;102484.72;10190070;28;20058;-71
2022/03/14 18:00:19;;;;;;;20.73;15.07;;;;;;;7.95;100.00;102488.19;10188948;28;20042;-71
2022/03/14 18:05:15;;;;;;;25.42;16.27;;;;;;;7.90;100.00;102492.78;10193385;28;20050;-71
2022/03/14 18:10:12;;;;;;;28.00;19.58;;;;;;;7.90;100.00;102504.47;10193855;28;20042;-71
2022/03/14 18:15:09;;;;;;;23.50;17.83;;;;;;;7.93;100.00;102503.97;10190722;28;20124;-71
2022/03/14 18:20:08;;;;;;;25.63;15.50;;;;;;;7.89;100.00;102507.44;10188716;28;20093;-68
2022/03/14 18:25:05;;;;;;;24.67;16.77;;;;;;;7.94;100.00;102510.25;10201545;28;20046;-71
2022/03/14 18:30:03;;;;;;;21.75;15.90;;;;;;;7.94;100.00;102510.25;10185930;28;20088;-71
2022/03/14 18:35:00;;;;;;;24.90;17.67;;;;;;;7.96;100.00;102521.69;10188146;28;20157;-71
2022/03/14 18:39:56;;;;;;;25.05;17.25;;;;;;;7.94;100.00;102521.97;10187826;28;20076;-71
2022/03/14 18:45:13;;;;;;;24.83;17.30;;;;;;;7.95;100.00;102522.78;10186839;28;20607;-71
2022/03/14 18:50:09;;;;;;;26.48;20.08;;;;;;;7.98;100.00;102538.59;10189454;28;20088;-70
2022/03/14 18:55:26;;;;;;;27.65;19.33;;;;;;;7.98;100.00;102549.50;10192136;28;20091;-70
2022/03/14 19:00:24;;;;;;;25.85;18.90;;;;;;;7.97;100.00;102547.88;10192069;28;20092;-70
2022/03/14 19:05:21;;;;;;;28.13;20.77;;;;;;;7.91;100.00;102559.78;10186414;28;20061;-70
2022/03/14 19:10:18;;;;;;;24.65;18.60;;;;;;;7.95;100.00;102563.63;10186202;28;20554;-71
2022/03/14 19:15:14;;;;;;;30.15;20.02;;;;;;;7.93;100.00;102568.50;10180930;28;20077;-72
2022/03/14 19:20:11;;;;;;;28.90;21.85;;;;;;;7.92;100.00;102566.88;10179896;28;20092;-72
2022/03/14 19:25:09;;;;;;;29.13;21.13;;;;;;;7.88;100.00;102573.91;10189181;28;20053;-72
2022/03/14 19:30:07;;;;;;;34.13;21.90;;;;;;;7.87;100.00;102585.88;10184707;28;20089;-71
2022/03/14 19:35:06;;;;;;;30.50;20.67;;;;;;;7.87;100.00;102591.34;10177234;28;20053;-70
2022/03/14 19:40:03;;;;;;;31.42;20.20;;;;;;;7.87;100.00;102591.34;10184760;28;20050;-72
2022/03/14 19:45:01;;;;;;;24.15;18.45;;;;;;;7.91;100.00;102604.16;10186481;28;20050;-71
2022/03/14 19:49:57;;;;;;;27.45;19.75;;;;;;;7.91;100.00;102609.59;10140164;28;20453;-72
2022/03/14 19:54:54;;;;;;;25.48;18.35;;;;;;;7.96;100.00;102611.56;10140939;28;20050;-73
2022/03/14 19:59:50;;;;;;;29.30;19.85;;;;;;;7.95;100.00;102604.50;10145847;28;20484;-72
2022/03/14 20:04:47;;;;;;;23.52;16.67;;;;;;;7.94;100.00;102616.47;10147112;28;20089;-72
2022/03/14 20:09:43;;;;;;;22.75;14.82;;;;;;;7.93;100.00;102617.53;10149173;28;20073;-72
2022/03/14 20:14:41;;;;;;;26.45;17.48;;;;;;;7.95;100.00;102621.66;10149638;28;20046;-72
2022/03/14 20:19:38;;;;;;;24.30;14.65;;;;;;;7.91;100.00;102619.69;10150008;28;20069;-72
2022/03/14 20:24:34;;;;;;;19.40;13.85;;;;;;;7.89;100.00;102628.13;10148440;28;20046;-72
2022/03/14 20:29:31;;;;;;;18.92;12.65;;;;;;;7.94;100.00;102641.00;10151697;28;20132;-72
2022/03/14 20:34:28;;;;;;;20.00;11.48;;;;;;;7.89;100.00;102654.53;10154480;28;20108;-72
2022/03/14 20:39:26;;;;;;;21.00;11.18;;;;;;;7.76;100.00;102667.44;10163420;28;20571;-73
2022/03/14 20:44:24;;;;;;;19.67;9.88;;;;;;;7.67;100.00;102671.66;10163398;28;20097;-72
2022/03/14 20:49:20;;;;;;;16.05;10.75;;;;;;;7.57;100.00;102666.91;10157174;28;20405;-72
2022/03/14 20:54:18;;;;;;;17.83;10.05;;;;;;;7.57;100.00;102661.44;10147287;28;20057;-71
2022/03/14 20:59:15;;;;;;;20.55;11.43;;;;;;;7.54;100.00;102672.00;10148745;28;20101;-70
2022/03/14 21:04:13;;;;;;;19.33;10.77;;;;;;;7.57;100.00;102683.22;10150630;28;20050;-71
2022/03/14 21:09:10;;;;;;;17.15;10.23;;;;;;;7.68;100.00;102692.38;10147963;28;20120;-71
2022/03/14 21:14:06;;;;;;;20.10;11.25;;;;;;;7.64;100.00;102674.91;10150064;28;20161;-71
2022/03/14 21:19:03;;;;;;;23.13;10.98;;;;;;;7.72;100.00;102693.50;10164481;28;20449;-71
2022/03/14 21:23:59;;;;;;;19.40;10.02;;;;;;;7.72;100.00;102696.22;10188864;28;20527;-71
2022/03/14 21:28:57;;;;;;;19.75;9.63;;;;;;;7.68;100.00;102686.94;10195846;28;20050;-70
2022/03/14 21:33:59;;;;;;;24.92;10.63;;;;;;;7.66;100.00;102683.63;10193257;28;20935;-71
2022/03/14 21:38:56;;;;;;;23.33;11.00;;;;;;;7.61;100.00;102683.53;10181818;28;20092;-67
2022/03/14 21:43:52;;;;;;;21.80;12.10;;;;;;;7.50;100.00;102684.50;10187682;28;20507;-68
2022/03/14 21:48:49;;;;;;;27.55;13.10;;;;;;;7.36;100.00;102684.81;10189559;28;20050;-70
2022/03/14 21:53:45;;;;;;;35.53;15.15;;;;;;;7.43;100.00;102683.84;10189145;28;20124;-71
2022/03/14 21:58:44;;;;;;;30.00;17.38;;;;;;;7.42;100.00;102682.16;10193091;28;20071;-70
2022/03/14 22:03:41;;;;;;;35.30;17.30;;;;;;;7.42;100.00;102682.16;10188173;28;20065;-71
2022/03/14 22:08:38;;;;;;;39.53;20.15;;;;;;;7.37;100.00;102669.31;10184777;28;20080;-71
2022/03/14 22:13:39;;;;;;;36.33;20.27;;;;;;;7.26;100.00;102668.31;10188029;28;20100;-71
2022/03/14 22:18:36;;;;;;;41.38;21.35;;;;;;;7.20;100.00;102663.06;10188770;28;20077;-71
2022/03/14 22:23:32;;;;;;;41.30;22.85;;;;;;;6.98;100.00;102665.66;10193449;28;20053;-71
2022/03/14 22:28:32;;;;;;;40.75;23.48;;;;;;;6.99;100.00;102672.78;10191856;28;20042;-71
2022/03/14 22:33:29;;;;;;;44.17;24.77;;;;;;;7.05;100.00;102682.66;10193585;28;20100;-71
2022/03/14 22:38:25;;;;;;;45.88;24.52;;;;;;;7.03;100.00;102677.47;10192268;28;20136;-74